Time;durP1;ratioP1;P1;durP2;ratioP2;P2;SDS_P1;SDS_P2;PMS_P1;PMS_P2;Temp;Humidity;BMP_temperature;BMP_pressure;BME280_temperature;BME280_humidity;BME280_pressure;Samples;Min_cycle;Max_cycle;Signal;HPM_P1;HPM_P2
2024/02/10 00:43:45;;;;;;;3.23;1.63;;;-6.80;99.90;;;;;;1925137;73;27592;-91
2024/02/10 00:46:34;;;;;;;4.03;1.37;;;-6.80;99.90;;;;;;1901193;73;25165;-92
2024/02/10 01:45:17;;;;;;;7.00;3.23;;;-7.60;99.90;;;;;;2023622;69;26226;-93
2024/02/10 03:01:37;;;;;;;6.27;2.53;;;-8.20;99.90;;;;;;1872380;74;25354;-93
2024/02/10 03:09:48;;;;;;;6.57;2.03;;;-8.30;99.90;;;;;;1816736;77;26054;-92
2024/02/10 03:16:12;;;;;;;4.27;2.23;;;-8.30;99.90;;;;;;1805343;76;25996;-91
2024/02/10 03:19:27;;;;;;;4.40;1.90;;;-8.30;99.90;;;;;;1798508;77;25938;-91
2024/02/10 03:23:01;;;;;;;4.93;2.43;;;-8.30;99.90;;;;;;1824288;76;25981;-90
2024/02/10 03:26:30;;;;;;;4.63;2.03;;;-8.30;99.90;;;;;;1833975;76;25944;-93
2024/02/10 03:29:16;;;;;;;9.93;2.33;;;-8.50;99.90;;;;;;1808569;77;25991;-92
2024/02/10 03:32:06;;;;;;;4.60;2.47;;;-8.50;99.90;;;;;;1828456;76;25976;-92
2024/02/10 03:35:00;;;;;;;2.13;1.40;;;-8.40;99.90;;;;;;1851017;75;26478;-91
2024/02/10 03:38:07;;;;;;;3.60;1.60;;;-8.40;99.90;;;;;;1819141;77;26180;-92
2024/02/10 04:04:42;;;;;;;4.43;1.97;;;-8.30;99.90;;;;;;1932539;69;26472;-92
2024/02/10 04:10:55;;;;;;;4.53;1.77;;;-8.40;99.90;;;;;;1983798;71;27238;-92
2024/02/10 04:14:06;;;;;;;7.37;2.53;;;-8.30;99.90;;;;;;1943760;72;25990;-92
2024/02/10 04:16:55;;;;;;;8.20;2.70;;;-8.30;99.90;;;;;;1943411;72;25860;-92
2024/02/10 04:19:46;;;;;;;1.17;0.60;;;-8.30;99.90;;;;;;1952167;72;26461;-92
2024/02/10 04:22:59;;;;;;;1.47;1.20;;;-8.30;99.90;;;;;;1963940;72;25862;-92
2024/02/10 04:25:51;;;;;;;4.60;2.07;;;-8.30;99.90;;;;;;1964987;72;25888;-92
2024/02/10 04:29:28;;;;;;;4.20;2.37;;;-8.30;99.90;;;;;;1967541;72;25952;-92
2024/02/10 04:32:19;;;;;;;2.80;2.07;;;-8.40;99.90;;;;;;1969436;72;25953;-92
2024/02/10 04:35:10;;;;;;;3.93;1.47;;;-8.40;99.90;;;;;;1964378;72;25920;-92
2024/02/10 04:38:08;;;;;;;2.77;1.40;;;-8.40;99.90;;;;;;1933673;72;25893;-92
2024/02/10 04:40:57;;;;;;;9.77;1.87;;;-8.40;99.90;;;;;;1965107;72;25933;-92
2024/02/10 04:43:46;;;;;;;1.40;1.00;;;-8.30;99.90;;;;;;1960628;72;26473;-92
2024/02/10 04:46:36;;;;;;;2.73;1.67;;;-8.30;99.90;;;;;;1964555;72;26441;-92
2024/02/10 04:49:55;;;;;;;2.10;1.30;;;-8.40;99.90;;;;;;1961329;72;26519;-91
2024/02/10 04:52:55;;;;;;;5.27;2.10;;;-8.40;99.90;;;;;;1956315;72;26449;-92
2024/02/10 04:56:49;;;;;;;4.07;1.87;;;-8.40;99.90;;;;;;1948631;72;26372;-91
2024/02/10 12:30:18;;;;;;;2.33;1.10;;;-4.00;99.90;;;;;;1895406;73;27240;-92
2024/02/10 12:48:01;;;;;;;3.23;1.70;;;-3.90;99.90;;;;;;2000695;71;26328;-93
2024/02/10 12:50:53;;;;;;;3.97;2.70;;;-4.20;99.90;;;;;;2019405;69;25651;-91
2024/02/10 12:57:51;;;;;;;1.83;1.30;;;-3.90;99.90;;;;;;1785746;74;25274;-93
2024/02/10 13:00:39;;;;;;;13.17;1.63;;;-3.90;99.90;;;;;;1934489;73;26758;-92
2024/02/10 13:03:44;;;;;;;1.53;1.03;;;-3.80;99.90;;;;;;1905525;74;25234;-92
2024/02/10 13:06:33;;;;;;;2.83;1.57;;;-3.80;99.90;;;;;;1921382;73;25958;-92
2024/02/10 13:09:23;;;;;;;2.83;1.57;;;-3.80;99.90;;;;;;1936064;73;25162;-92
2024/02/10 13:15:48;;;;;;;1.23;1.10;;;-3.90;99.90;;;;;;1991703;71;25222;-92
2024/02/10 13:21:44;;;;;;;1.67;1.03;;;-4.20;99.90;;;;;;1934931;72;26637;-91
2024/02/10 13:24:33;;;;;;;1.57;1.00;;;-4.30;99.90;;;;;;1945290;73;25613;-91
2024/02/10 13:27:47;;;;;;;1.40;1.27;;;-4.40;99.90;;;;;;1903357;75;25173;-91
2024/02/10 13:35:20;;;;;;;2.13;1.83;;;-4.40;99.90;;;;;;2006071;69;26280;-92
2024/02/10 14:03:17;;;;;;;2.00;1.63;;;-4.00;99.90;;;;;;1914960;73;25245;-92
2024/02/10 14:09:11;;;;;;;0.60;0.60;;;-3.90;99.90;;;;;;1951885;72;26528;-91
2024/02/10 14:12:00;;;;;;;3.57;1.63;;;-3.90;99.90;;;;;;1931108;73;25225;-91
2024/02/10 14:14:48;;;;;;;2.13;1.13;;;-3.90;99.90;;;;;;1936552;71;25172;-91
2024/02/10 14:17:57;;;;;;;5.17;1.50;;;-3.90;99.90;;;;;;1932646;73;25253;-91
2024/02/10 14:20:46;;;;;;;3.23;1.13;;;-3.90;99.90;;;;;;1934505;73;25205;-91
2024/02/10 14:24:30;;;;;;;1.83;1.23;;;-3.90;99.90;;;;;;1932175;73;25235;-91
2024/02/10 14:27:23;;;;;;;2.80;1.00;;;-3.90;99.90;;;;;;1938545;73;25193;-91
2024/02/10 14:30:14;;;;;;;3.80;1.30;;;-3.90;99.90;;;;;;1930747;73;25163;-91
2024/02/10 14:33:25;;;;;;;4.17;2.00;;;-3.90;99.90;;;;;;1929769;72;25359;-91
2024/02/10 14:36:50;;;;;;;1.73;1.00;;;-3.90;99.90;;;;;;1930167;73;25239;-91
2024/02/10 14:43:29;;;;;;;2.87;1.07;;;-3.90;99.90;;;;;;1940698;73;25193;-91
2024/02/10 14:46:45;;;;;;;2.63;1.70;;;-3.90;99.90;;;;;;1932111;73;25607;-91
2024/02/10 14:53:43;;;;;;;1.93;1.27;;;-3.90;99.90;;;;;;1956365;72;26967;-91
2024/02/10 15:01:45;;;;;;;1.00;1.00;;;-4.20;99.90;;;;;;1819438;77;25858;-90
2024/02/10 15:04:36;;;;;;;5.80;1.80;;;-4.20;99.90;;;;;;1807566;78;25311;-90
2024/02/10 15:12:49;;;;;;;2.87;1.67;;;-4.30;99.90;;;;;;1961672;71;27068;-90
2024/02/10 15:15:42;;;;;;;5.17;2.20;;;-4.30;99.90;;;;;;1999100;70;25740;-91
2024/02/10 15:44:05;;;;;;;3.53;1.80;;;-4.30;99.90;;;;;;1939864;72;26792;-90
2024/02/10 15:46:53;;;;;;;2.47;1.23;;;-4.30;99.90;;;;;;1934864;73;25254;-90
2024/02/10 16:10:30;;;;;;;7.03;1.83;;;-4.40;99.90;;;;;;1989808;71;27027;-90
2024/02/10 16:13:26;;;;;;;3.27;1.67;;;-4.50;99.90;;;;;;1955087;71;25185;-90
2024/02/10 16:16:20;;;;;;;0.57;0.57;;;-4.50;99.90;;;;;;1964738;72;25214;-91
2024/02/10 16:19:04;;;;;;;2.20;1.40;;;-4.50;99.90;;;;;;1975385;68;25294;-91
2024/02/10 16:21:52;;;;;;;1.77;1.20;;;-4.50;99.90;;;;;;1976842;72;25235;-91
2024/02/10 16:24:43;;;;;;;1.93;1.30;;;-4.50;99.90;;;;;;1974962;72;25279;-93
2024/02/10 16:27:32;;;;;;;2.13;1.67;;;-4.50;99.90;;;;;;1969880;72;25159;-90
2024/02/10 16:30:21;;;;;;;2.40;1.70;;;-4.50;99.90;;;;;;1968418;72;25211;-91
2024/02/10 16:33:11;;;;;;;7.93;1.40;;;-4.60;99.90;;;;;;1974775;72;25191;-92
2024/02/10 16:36:02;;;;;;;2.60;1.47;;;-4.60;99.90;;;;;;1970093;72;25671;-91
2024/02/10 16:38:53;;;;;;;2.83;1.20;;;-4.60;99.90;;;;;;1971030;72;25258;-91
2024/02/10 16:41:42;;;;;;;2.23;1.60;;;-4.60;99.90;;;;;;1961982;72;25259;-91
2024/02/10 16:44:33;;;;;;;1.33;1.20;;;-4.60;99.90;;;;;;1961151;71;25222;-91
2024/02/10 16:47:45;;;;;;;2.23;1.07;;;-4.60;99.90;;;;;;1985928;71;25149;-91
2024/02/10 16:53:17;;;;;;;3.53;1.50;;;-4.60;99.90;;;;;;2022401;69;28022;-92
2024/02/10 16:56:08;;;;;;;0.97;0.87;;;-4.60;99.90;;;;;;1979990;71;25200;-92
2024/02/10 17:34:58;;;;;;;1.73;1.40;;;-4.70;99.90;;;;;;1945881;72;27137;-91
2024/02/10 17:37:55;;;;;;;4.60;1.50;;;-4.70;99.90;;;;;;1942889;73;25249;-91
2024/02/10 17:40:45;;;;;;;2.20;1.53;;;-4.70;99.90;;;;;;1934134;73;25274;-92
2024/02/10 17:43:50;;;;;;;4.03;1.47;;;-4.80;99.90;;;;;;1940527;73;25720;-93
2024/02/10 17:46:47;;;;;;;3.93;2.07;;;-4.80;99.90;;;;;;1918977;73;25257;-91
2024/02/10 17:49:40;;;;;;;3.00;1.63;;;-4.80;99.90;;;;;;1917613;75;25175;-91
2024/02/10 17:52:25;;;;;;;4.10;1.80;;;-4.80;99.90;;;;;;1929962;73;25287;-91
2024/02/10 17:55:35;;;;;;;3.03;1.23;;;-4.80;99.90;;;;;;1936215;73;25299;-92
2024/02/10 17:58:30;;;;;;;4.53;1.90;;;-4.70;99.90;;;;;;1910446;75;25271;-91
